createdAt,value
2018-12-19T00:01:23.541Z,84.70
2018-12-19T00:03:51.678Z,84.70
2018-12-19T00:06:19.787Z,84.70
2018-12-19T00:08:48.148Z,84.60
2018-12-19T00:11:16.269Z,84.60
2018-12-19T00:13:44.408Z,84.80
2018-12-19T00:16:12.562Z,84.90
2018-12-19T00:18:40.678Z,85.70
2018-12-19T00:21:08.862Z,85.80
2018-12-19T00:23:37.004Z,86.10
2018-12-19T00:26:05.123Z,86.20
2018-12-19T00:28:33.348Z,87.00
2018-12-19T00:31:01.401Z,86.70
2018-12-19T00:33:29.627Z,87.10
2018-12-19T00:35:57.777Z,86.90
2018-12-19T00:38:25.915Z,87.50
2018-12-19T00:40:54.155Z,87.30
2018-12-19T00:43:22.293Z,87.20
2018-12-19T00:45:50.337Z,86.20
2018-12-19T00:48:18.466Z,86.00
2018-12-19T00:50:46.603Z,85.60
2018-12-19T00:53:14.703Z,85.00
2018-12-19T00:55:42.817Z,85.30
2018-12-19T00:58:10.962Z,85.70
2018-12-19T01:00:39.013Z,86.10
2018-12-19T01:03:07.713Z,86.80
2018-12-19T01:05:35.839Z,88.10
2018-12-19T01:08:03.913Z,89.10
2018-12-19T01:10:31.990Z,87.70
2018-12-19T01:13:00.091Z,88.00
2018-12-19T01:15:28.241Z,87.30
2018-12-19T01:17:56.397Z,86.40
2018-12-19T01:20:24.887Z,86.10
2018-12-19T01:22:53.010Z,86.40
2018-12-19T01:25:21.352Z,86.90
2018-12-19T01:27:49.450Z,87.60
2018-12-19T01:30:17.585Z,87.80
2018-12-19T01:32:45.663Z,87.60
2018-12-19T01:35:13.931Z,88.90
2018-12-19T01:37:41.984Z,88.90
2018-12-19T01:40:10.144Z,88.90
2018-12-19T01:42:38.416Z,88.50
2018-12-19T01:45:07.237Z,89.00
2018-12-19T01:47:35.269Z,88.80
2018-12-19T01:50:04.497Z,88.50
2018-12-19T01:52:32.579Z,88.30
2018-12-19T01:55:00.716Z,87.60
2018-12-19T01:57:28.835Z,87.10
2018-12-19T01:59:56.978Z,86.40
2018-12-19T02:02:25.229Z,85.70
2018-12-19T02:04:53.351Z,86.10
2018-12-19T02:07:21.715Z,86.80
2018-12-19T02:09:49.783Z,87.00
2018-12-19T02:12:17.868Z,86.80
2018-12-19T02:14:46.023Z,86.30
2018-12-19T02:17:14.155Z,86.50
2018-12-19T02:19:43.011Z,86.60
2018-12-19T02:22:11.072Z,86.60
2018-12-19T02:24:39.166Z,86.70
2018-12-19T02:27:07.320Z,87.00
2018-12-19T02:29:35.453Z,87.20
2018-12-19T02:32:08.101Z,86.20
2018-12-19T02:34:36.557Z,85.80
2018-12-19T02:37:04.715Z,86.00
2018-12-19T02:39:42.186Z,86.30
2018-12-19T02:42:10.348Z,86.00
2018-12-19T02:44:38.342Z,85.80
2018-12-19T02:47:06.345Z,86.80
2018-12-19T02:49:39.665Z,86.50
2018-12-19T02:52:07.465Z,85.80
2018-12-19T02:54:35.495Z,85.60
2018-12-19T02:57:04.577Z,85.80
2018-12-19T02:59:32.744Z,85.70
2018-12-19T03:02:00.864Z,85.60
2018-12-19T03:04:28.946Z,85.90
2018-12-19T03:06:57.045Z,86.10
2018-12-19T03:09:25.310Z,86.60
2018-12-19T03:11:53.479Z,86.70
2018-12-19T03:14:22.568Z,86.70
2018-12-19T03:16:50.693Z,86.20
2018-12-19T03:19:19.061Z,85.70
2018-12-19T03:21:47.200Z,85.70
2018-12-19T03:24:15.412Z,85.40
2018-12-19T03:26:43.452Z,84.50
2018-12-19T03:29:16.589Z,85.20
2018-12-19T03:31:44.689Z,85.70
2018-12-19T03:34:12.750Z,85.40
2018-12-19T03:36:40.870Z,85.40
2018-12-19T03:39:09.207Z,85.40
2018-12-19T03:41:37.401Z,85.60
2018-12-19T03:44:05.532Z,85.10
2018-12-19T03:46:33.610Z,86.20
2018-12-19T03:49:01.689Z,84.80
2018-12-19T03:51:29.741Z,85.40
2018-12-19T03:53:57.813Z,84.90
2018-12-19T03:56:25.898Z,84.90
2018-12-19T03:58:54.058Z,85.00
2018-12-19T04:01:22.168Z,84.80
2018-12-19T04:03:50.308Z,85.70
2018-12-19T04:06:18.296Z,85.00
2018-12-19T04:08:46.636Z,85.20
2018-12-19T04:11:15.128Z,84.90
2018-12-19T04:13:43.203Z,84.90
2018-12-19T04:16:11.265Z,85.30
2018-12-19T04:18:39.394Z,85.00
2018-12-19T04:21:07.463Z,85.10
2018-12-19T04:23:35.651Z,85.10
2018-12-19T04:26:04.699Z,84.60
2018-12-19T04:28:32.830Z,84.10
2018-12-19T04:31:00.879Z,83.70
2018-12-19T04:33:28.971Z,83.00
2018-12-19T04:35:57.132Z,83.00
2018-12-19T04:38:25.928Z,83.60
2018-12-19T04:40:53.997Z,82.40
2018-12-19T04:43:22.081Z,83.00
2018-12-19T04:45:50.180Z,83.10
2018-12-19T04:48:18.343Z,82.60
2018-12-19T04:50:46.463Z,81.80
2018-12-19T04:53:14.725Z,82.00
2018-12-19T04:55:42.891Z,82.00
2018-12-19T04:58:11.004Z,82.50
2018-12-19T05:00:39.093Z,82.10
2018-12-19T05:03:07.173Z,81.40
2018-12-19T05:05:35.200Z,81.10
2018-12-19T05:08:03.623Z,81.40
2018-12-19T05:10:31.663Z,81.70
2018-12-19T05:13:01.271Z,81.30
2018-12-19T05:15:29.576Z,81.90
2018-12-19T05:17:57.668Z,81.90
2018-12-19T05:20:25.854Z,82.10
2018-12-19T05:22:54.525Z,81.60
2018-12-19T05:25:22.647Z,81.70
2018-12-19T05:27:50.809Z,81.60
2018-12-19T05:30:24.065Z,81.60
2018-12-19T05:32:52.158Z,81.80
2018-12-19T05:35:20.336Z,81.90
2018-12-19T05:37:48.351Z,82.10
2018-12-19T05:40:19.003Z,83.60
2018-12-19T05:42:46.783Z,83.00
2018-12-19T05:45:14.900Z,83.00
2018-12-19T05:47:42.965Z,83.30
2018-12-19T05:50:17.163Z,82.90
2018-12-19T05:52:45.499Z,82.40
2018-12-19T05:55:13.627Z,82.00
2018-12-19T05:57:41.916Z,82.00
2018-12-19T06:00:10.180Z,81.90
2018-12-19T06:02:38.231Z,82.00
2018-12-19T06:05:06.473Z,81.60
2018-12-19T06:07:34.570Z,81.50
2018-12-19T06:10:02.847Z,81.50
2018-12-19T06:12:31.077Z,81.40
2018-12-19T06:14:59.319Z,81.40
2018-12-19T06:17:27.413Z,81.20
2018-12-19T06:19:55.523Z,81.20
2018-12-19T06:22:23.643Z,82.00
2018-12-19T06:24:51.731Z,80.40
2018-12-19T06:27:23.456Z,80.70
2018-12-19T06:29:57.329Z,80.30
2018-12-19T06:32:25.484Z,80.40
2018-12-19T06:34:53.552Z,80.40
2018-12-19T06:37:21.676Z,80.00
2018-12-19T06:39:49.777Z,80.40
2018-12-19T06:42:17.940Z,80.40
2018-12-19T06:44:47.500Z,80.30
2018-12-19T06:47:15.631Z,80.20
2018-12-19T06:49:43.777Z,80.40
2018-12-19T06:52:11.949Z,80.40
2018-12-19T06:54:40.010Z,80.60
2018-12-19T06:57:09.574Z,80.40
2018-12-19T06:59:37.977Z,80.40
2018-12-19T07:02:06.005Z,80.40
2018-12-19T07:04:34.114Z,81.20
2018-12-19T07:07:02.261Z,80.70
2018-12-19T07:09:39.851Z,81.10
2018-12-19T07:12:08.012Z,81.80
2018-12-19T07:14:40.204Z,81.30
2018-12-19T07:17:08.612Z,80.40
2018-12-19T07:19:36.921Z,80.40
2018-12-19T07:22:05.147Z,80.40
2018-12-19T07:24:33.208Z,80.50
2018-12-19T07:27:01.339Z,80.40
2018-12-19T07:29:29.532Z,80.40
2018-12-19T07:31:57.628Z,80.90
2018-12-19T07:34:25.692Z,80.50
2018-12-19T07:36:53.859Z,80.70
2018-12-19T07:39:22.062Z,81.30
2018-12-19T07:41:50.186Z,81.10
2018-12-19T07:44:18.342Z,82.70
2018-12-19T07:46:46.450Z,82.50
2018-12-19T07:49:14.857Z,82.40
2018-12-19T07:51:43.048Z,82.20
2018-12-19T07:54:11.091Z,82.80
2018-12-19T07:56:39.256Z,83.10
2018-12-19T07:59:12.593Z,82.80
2018-12-19T08:01:40.642Z,83.10
2018-12-19T08:04:09.049Z,83.90
2018-12-19T08:06:37.255Z,84.90
2018-12-19T08:09:07.621Z,85.70
2018-12-19T08:11:36.718Z,85.70
2018-12-19T08:14:05.297Z,85.40
2018-12-19T08:16:33.500Z,85.70
2018-12-19T08:19:01.617Z,85.60
2018-12-19T08:21:29.760Z,85.30
2018-12-19T08:23:57.826Z,83.40
2018-12-19T08:26:26.321Z,84.10
2018-12-19T08:28:54.643Z,85.10
2018-12-19T08:31:23.030Z,85.20
2018-12-19T08:33:51.163Z,84.30
2018-12-19T08:36:19.280Z,84.20
2018-12-19T08:38:47.473Z,83.20
2018-12-19T08:41:15.577Z,83.50
2018-12-19T08:43:43.666Z,84.10
2018-12-19T08:46:14.659Z,84.30
2018-12-19T08:48:41.969Z,84.30
2018-12-19T08:51:10.057Z,83.40
2018-12-19T08:53:38.291Z,85.30
2018-12-19T08:56:06.491Z,84.60
2018-12-19T08:58:34.690Z,84.30
2018-12-19T09:01:16.648Z,84.80
2018-12-19T09:03:44.888Z,84.40
2018-12-19T09:06:13.076Z,83.60
2018-12-19T09:08:41.121Z,84.10
2018-12-19T09:11:09.233Z,84.00
2018-12-19T09:13:37.351Z,83.00
2018-12-19T09:16:05.422Z,83.20
2018-12-19T09:18:33.546Z,83.00
2018-12-19T09:21:01.694Z,82.90
2018-12-19T09:23:29.847Z,82.80
2018-12-19T09:25:57.910Z,82.40
2018-12-19T09:28:26.074Z,82.20
2018-12-19T09:30:54.753Z,81.10
2018-12-19T09:33:27.350Z,82.10
2018-12-19T09:35:52.958Z,81.60
2018-12-19T09:38:21.079Z,81.20
2018-12-19T09:40:49.207Z,81.20
2018-12-19T09:43:17.279Z,81.20
2018-12-19T09:45:45.385Z,81.30
2018-12-19T09:48:13.587Z,81.30
2018-12-19T09:50:42.377Z,81.30
2018-12-19T09:53:10.660Z,80.70
2018-12-19T09:55:38.741Z,81.20
2018-12-19T09:58:06.899Z,81.30
2018-12-19T10:00:35.277Z,81.30
2018-12-19T10:03:03.504Z,82.30
2018-12-19T10:05:31.855Z,82.40
2018-12-19T10:07:59.940Z,82.40
2018-12-19T10:10:30.485Z,82.20
2018-12-19T10:12:58.541Z,82.60
2018-12-19T10:15:26.762Z,83.50
2018-12-19T10:17:54.903Z,83.80
2018-12-19T10:20:52.785Z,82.10
2018-12-19T10:23:21.234Z,83.40
2018-12-19T10:25:53.926Z,83.20
2018-12-19T10:28:27.520Z,83.30
2018-12-19T10:31:00.757Z,83.10
2018-12-19T10:33:28.880Z,82.00
2018-12-19T10:35:57.242Z,82.40
2018-12-19T10:38:25.347Z,82.70
2018-12-19T10:40:53.453Z,82.00
2018-12-19T10:43:21.592Z,81.90
2018-12-19T10:45:50.275Z,82.60
2018-12-19T10:48:18.416Z,80.60
2018-12-19T10:50:46.592Z,81.10
2018-12-19T10:53:14.622Z,81.30
2018-12-19T10:55:42.810Z,81.10
2018-12-19T10:58:10.982Z,81.40
2018-12-19T11:00:44.746Z,81.40
2018-12-19T11:03:12.865Z,81.40
2018-12-19T11:05:41.109Z,81.40
2018-12-19T11:08:09.258Z,80.80
2018-12-19T11:10:37.465Z,81.30
2018-12-19T11:13:05.529Z,81.40
2018-12-19T11:15:34.747Z,81.30
2018-12-19T11:18:02.878Z,80.90
2018-12-19T11:20:40.469Z,80.70
2018-12-19T11:23:08.580Z,81.50
2018-12-19T11:25:37.270Z,81.50
2018-12-19T11:28:05.353Z,81.60
2018-12-19T11:30:33.427Z,81.60
2018-12-19T11:33:01.501Z,83.10
2018-12-19T11:35:29.611Z,82.90
2018-12-19T11:37:57.702Z,83.20
2018-12-19T11:40:25.750Z,83.10
2018-12-19T11:42:53.895Z,82.90
2018-12-19T11:45:21.997Z,81.50
2018-12-19T11:47:50.147Z,81.00
2018-12-19T11:50:18.217Z,80.50
2018-12-19T11:52:46.332Z,80.70
2018-12-19T11:55:14.393Z,80.20
2018-12-19T11:57:43.067Z,80.30
2018-12-19T12:00:11.407Z,80.60
2018-12-19T12:02:39.566Z,80.00
2018-12-19T12:05:07.752Z,80.70
2018-12-19T12:07:36.104Z,81.10
2018-12-19T12:10:06.018Z,81.60
2018-12-19T12:12:34.134Z,81.60
2018-12-19T12:15:02.253Z,81.50
2018-12-19T12:17:30.409Z,81.90
2018-12-19T12:20:12.742Z,82.80
2018-12-19T12:22:41.274Z,83.00
2018-12-19T12:25:09.677Z,83.70
2018-12-19T12:27:37.858Z,84.30
2018-12-19T12:30:06.524Z,84.70
2018-12-19T12:32:36.800Z,85.10
2018-12-19T12:35:06.626Z,85.90
2018-12-19T12:37:34.820Z,85.70
2018-12-19T12:40:03.310Z,86.40
2018-12-19T12:42:31.411Z,86.20
2018-12-19T12:45:00.055Z,86.40
2018-12-19T12:47:28.285Z,86.40
2018-12-19T12:49:56.477Z,86.00
2018-12-19T12:52:24.583Z,86.30
2018-12-19T12:54:52.709Z,86.50
2018-12-19T12:57:26.682Z,86.60
2018-12-19T12:59:54.893Z,86.60
2018-12-19T13:02:22.983Z,86.30
2018-12-19T13:04:51.146Z,86.60
2018-12-19T13:07:20.075Z,85.40
2018-12-19T13:09:48.105Z,85.60
2018-12-19T13:12:16.112Z,85.80
2018-12-19T13:14:44.255Z,85.20
2018-12-19T13:17:12.362Z,85.20
2018-12-19T13:19:40.588Z,85.20
2018-12-19T13:22:08.758Z,86.00
2018-12-19T13:24:36.864Z,86.20
2018-12-19T13:27:05.362Z,86.10
2018-12-19T13:29:34.128Z,87.40
2018-12-19T13:32:02.470Z,87.90
2018-12-19T13:34:30.610Z,88.10
2018-12-19T13:36:58.811Z,88.50
2018-12-19T13:39:26.991Z,88.40
2018-12-19T13:41:55.047Z,87.30
2018-12-19T13:44:23.199Z,88.40
2018-12-19T13:46:51.364Z,89.30
2018-12-19T13:49:19.589Z,89.40
2018-12-19T13:51:48.140Z,89.20
2018-12-19T13:54:16.318Z,88.50
2018-12-19T13:56:44.719Z,90.20
2018-12-19T13:59:16.406Z,90.30
2018-12-19T14:01:44.602Z,90.30
2018-12-19T14:04:12.792Z,90.60
2018-12-19T14:06:40.988Z,90.60
2018-12-19T14:09:18.998Z,91.00
2018-12-19T14:11:47.252Z,90.70
2018-12-19T14:14:15.405Z,90.70
2018-12-19T14:16:43.584Z,90.30
2018-12-19T14:19:11.722Z,90.40
2018-12-19T14:21:39.924Z,90.60
2018-12-19T14:24:08.120Z,90.90
2018-12-19T14:26:36.229Z,90.30
2018-12-19T14:29:04.433Z,90.70
2018-12-19T14:31:32.504Z,90.50
2018-12-19T14:34:00.687Z,90.20
2018-12-19T14:36:28.823Z,90.40
2018-12-19T14:38:56.889Z,90.70
2018-12-19T14:41:24.990Z,90.90
2018-12-19T14:43:53.091Z,90.60
2018-12-19T14:46:21.924Z,90.60
2018-12-19T14:48:50.012Z,90.00
2018-12-19T14:51:18.150Z,90.20
2018-12-19T14:53:46.254Z,90.00
2018-12-19T14:56:15.296Z,90.00
2018-12-19T14:58:43.461Z,88.90
2018-12-19T15:01:11.686Z,88.90
2018-12-19T15:03:39.826Z,88.90
2018-12-19T15:06:07.850Z,89.20
2018-12-19T15:08:35.979Z,89.10
2018-12-19T15:11:04.466Z,89.20
2018-12-19T15:13:32.534Z,88.40
2018-12-19T15:16:02.080Z,88.40
2018-12-19T15:18:30.587Z,89.00
2018-12-19T15:21:12.603Z,88.40
2018-12-19T15:23:40.751Z,88.80
2018-12-19T15:26:08.905Z,89.70
2018-12-19T15:28:37.036Z,90.00
2018-12-19T15:31:05.232Z,90.50
2018-12-19T15:33:33.485Z,89.70
2018-12-19T15:36:01.743Z,90.00
2018-12-19T15:38:29.893Z,90.00
2018-12-19T15:41:03.117Z,89.50
2018-12-19T15:43:42.782Z,90.00
2018-12-19T15:46:10.885Z,89.30
2018-12-19T15:48:38.989Z,89.30
2018-12-19T15:51:07.276Z,89.60
2018-12-19T15:53:35.363Z,89.20
2018-12-19T15:56:03.449Z,88.40
2018-12-19T15:58:31.565Z,87.30
2018-12-19T16:00:59.749Z,87.50
2018-12-19T16:03:28.266Z,88.30
2018-12-19T16:05:56.587Z,86.90
2018-12-19T16:08:24.781Z,86.90
2018-12-19T16:10:52.959Z,86.90
2018-12-19T16:13:24.241Z,86.80
2018-12-19T16:15:52.484Z,86.90
2018-12-19T16:18:21.111Z,86.90
2018-12-19T16:21:00.436Z,86.90
2018-12-19T16:23:28.638Z,86.90
2018-12-19T16:25:56.752Z,86.90
2018-12-19T16:28:24.863Z,86.10
2018-12-19T16:30:52.882Z,87.00
2018-12-19T16:33:21.042Z,87.10
2018-12-19T16:35:49.195Z,87.00
2018-12-19T16:38:22.018Z,85.80
2018-12-19T16:41:13.333Z,85.90
2018-12-19T16:43:43.922Z,86.60
2018-12-19T16:46:20.585Z,86.80
2018-12-19T16:48:50.702Z,87.00
2018-12-19T16:51:18.863Z,86.30
2018-12-19T16:53:47.026Z,86.80
2018-12-19T16:56:15.087Z,87.10
2018-12-19T16:58:43.254Z,85.90
2018-12-19T17:01:11.442Z,85.50
2018-12-19T17:03:39.691Z,85.20
2018-12-19T17:06:14.583Z,84.50
2018-12-19T17:08:44.831Z,84.40
2018-12-19T17:11:15.875Z,84.60
2018-12-19T17:13:44.354Z,85.40
2018-12-19T17:16:12.481Z,86.10
2018-12-19T17:18:40.552Z,86.40
2018-12-19T17:21:18.966Z,86.40
2018-12-19T17:23:47.061Z,86.80
2018-12-19T17:26:15.282Z,86.90
2018-12-19T17:28:43.472Z,86.90
2018-12-19T17:31:11.576Z,87.00
2018-12-19T17:33:50.488Z,87.00
2018-12-19T17:36:18.668Z,87.00
2018-12-19T17:38:46.814Z,87.20
2018-12-19T17:41:15.055Z,86.40
2018-12-19T17:43:52.834Z,86.80
2018-12-19T17:46:20.997Z,87.10
2018-12-19T17:48:49.136Z,85.80
2018-12-19T17:51:17.173Z,84.90
2018-12-19T17:53:45.255Z,84.10
2018-12-19T17:56:13.433Z,84.70
2018-12-19T17:58:41.534Z,85.40
2018-12-19T18:01:09.637Z,85.20
2018-12-19T18:03:37.842Z,85.00
2018-12-19T18:06:06.018Z,85.90
2018-12-19T18:08:34.225Z,87.00
2018-12-19T18:14:02.310Z,85.10
2018-12-19T18:16:30.625Z,85.20
2018-12-19T18:19:08.230Z,85.20
2018-12-19T18:21:36.700Z,84.90
2018-12-19T18:24:04.826Z,85.60
2018-12-19T18:26:33.121Z,85.60
2018-12-19T18:29:01.517Z,85.90
2018-12-19T18:31:29.669Z,87.00
2018-12-19T18:33:58.042Z,87.10
2018-12-19T18:36:26.300Z,86.80
2018-12-19T18:38:54.619Z,86.50
2018-12-19T18:41:22.740Z,86.20
2018-12-19T18:43:50.892Z,87.10
2018-12-19T18:46:19.178Z,87.10
2018-12-19T18:48:47.288Z,86.70
2018-12-19T18:51:15.422Z,86.40
2018-12-19T18:53:43.606Z,86.90
2018-12-19T18:56:11.807Z,87.00
2018-12-19T18:58:39.997Z,86.50
2018-12-19T19:01:08.436Z,86.90
2018-12-19T19:03:36.838Z,86.90
2018-12-19T19:06:05.074Z,87.50
2018-12-19T19:08:33.369Z,88.20
2018-12-19T19:11:01.559Z,88.90
2018-12-19T19:13:29.693Z,88.20
2018-12-19T19:15:58.599Z,87.00
2018-12-19T19:18:27.527Z,87.00
2018-12-19T19:20:56.356Z,87.50
2018-12-19T19:23:30.874Z,87.00
2018-12-19T19:26:00.769Z,86.50
2018-12-19T19:28:31.867Z,87.60
2018-12-19T19:31:05.774Z,87.00
2018-12-19T19:33:34.725Z,87.70
2018-12-19T19:36:03.709Z,86.90
2018-12-19T19:38:32.580Z,87.60
2018-12-19T19:41:01.767Z,87.50
2018-12-19T19:43:30.733Z,86.90
2018-12-19T19:45:59.313Z,88.50
2018-12-19T19:48:28.207Z,88.10
2018-12-19T19:50:56.983Z,87.00
2018-12-19T19:53:26.078Z,87.00
2018-12-19T19:55:55.207Z,87.10
2018-12-19T19:58:24.092Z,87.20
2018-12-19T20:00:53.264Z,87.00
2018-12-19T20:03:22.275Z,87.00
2018-12-19T20:05:51.478Z,87.00
2018-12-19T20:08:20.204Z,87.00
2018-12-19T20:10:49.281Z,87.00
2018-12-19T20:13:18.123Z,87.40
2018-12-19T20:15:46.833Z,87.10
2018-12-19T20:18:16.930Z,87.00
2018-12-19T20:20:45.957Z,87.00
2018-12-19T20:23:14.784Z,87.10
2018-12-19T20:25:43.494Z,87.00
2018-12-19T20:28:12.390Z,87.00
2018-12-19T20:30:54.880Z,87.00
2018-12-19T20:33:23.708Z,87.00
2018-12-19T20:35:52.458Z,87.10
2018-12-19T20:38:21.339Z,87.10
2018-12-19T20:40:49.408Z,87.40
2018-12-19T20:43:17.662Z,87.20
2018-12-19T20:45:45.871Z,87.20
2018-12-19T20:48:14.205Z,87.20
2018-12-19T20:50:42.544Z,87.20
2018-12-19T20:53:10.817Z,87.10
2018-12-19T20:55:39.087Z,87.20
2018-12-19T20:58:07.303Z,87.20
2018-12-19T21:00:35.539Z,87.20
2018-12-19T21:03:03.915Z,87.20
2018-12-19T21:05:33.091Z,87.20
2018-12-19T21:08:01.262Z,87.20
2018-12-19T21:10:29.395Z,87.20
2018-12-19T21:12:57.793Z,87.20
2018-12-19T21:15:26.075Z,87.20
2018-12-19T21:18:00.034Z,86.70
2018-12-19T21:20:28.111Z,85.90
2018-12-19T21:22:56.462Z,85.60
2018-12-19T21:28:03.683Z,86.00
2018-12-19T21:30:32.029Z,85.70
2018-12-19T21:33:13.819Z,86.10
2018-12-19T21:35:38.458Z,87.20
2018-12-19T21:38:07.609Z,87.20
2018-12-19T21:40:49.902Z,86.30
2018-12-19T21:43:18.085Z,87.40
2018-12-19T21:45:51.811Z,87.20
2018-12-19T21:48:16.396Z,86.90
2018-12-19T21:50:44.567Z,87.20
2018-12-19T21:53:13.697Z,87.20
2018-12-19T21:55:41.973Z,87.10
2018-12-19T21:58:10.211Z,88.00
2018-12-19T22:00:39.894Z,88.80
2018-12-19T22:03:08.778Z,87.60
2018-12-19T22:05:39.038Z,89.00
2018-12-19T22:08:07.220Z,87.20
2018-12-19T22:10:35.532Z,87.90
2018-12-19T22:13:03.931Z,88.60
2018-12-19T22:15:32.210Z,89.00
2018-12-19T22:18:05.963Z,88.80
2018-12-19T22:20:34.335Z,89.10
2018-12-19T22:23:02.428Z,88.80
2018-12-19T22:25:30.735Z,88.80
2018-12-19T22:27:58.945Z,88.80
2018-12-19T22:30:27.079Z,89.10
2018-12-19T22:32:55.398Z,87.80
2018-12-19T22:35:23.539Z,88.60
2018-12-19T22:37:51.748Z,88.40
2018-12-19T22:40:19.978Z,87.20
2018-12-19T22:42:48.142Z,88.00
2018-12-19T22:45:16.466Z,86.90
2018-12-19T22:47:44.655Z,86.80
2018-12-19T22:50:12.757Z,87.20
2018-12-19T22:52:41.007Z,87.30
2018-12-19T22:55:10.096Z,87.30
2018-12-19T22:57:38.263Z,87.20
2018-12-19T23:00:15.950Z,87.20
2018-12-19T23:02:50.991Z,87.30
2018-12-19T23:05:25.357Z,87.20
2018-12-19T23:07:53.532Z,86.70
2018-12-19T23:13:21.918Z,87.20
2018-12-19T23:15:50.088Z,86.80
2018-12-19T23:18:23.633Z,87.70
2018-12-19T23:20:52.173Z,87.20
2018-12-19T23:23:20.478Z,87.20
2018-12-19T23:25:48.939Z,87.20
2018-12-19T23:28:17.209Z,87.50
2018-12-19T23:30:59.546Z,87.20
2018-12-19T23:33:27.827Z,87.30
2018-12-19T23:35:56.056Z,87.20
2018-12-19T23:38:24.144Z,87.20
2018-12-19T23:40:52.392Z,87.90
2018-12-19T23:43:20.949Z,88.10
2018-12-19T23:45:49.221Z,87.20
2018-12-19T23:48:17.596Z,87.20
2018-12-19T23:50:45.707Z,88.00
2018-12-19T23:53:14.175Z,87.30
2018-12-19T23:55:42.353Z,87.30
2018-12-19T23:58:10.540Z,87.20
